Wild Boar Gully, Santa Catalina Island Weather observations

Data are for 10 minute period ending at time listed.
 Day   Time   Solar   Ave.   Ave.  Ave.  Vector    Max.   Stn.    Total
  of    of     Rad.   Air    Rel.  Wind   Wind     Wind   Baro.  Precip.
Year   Day            Temp.  Hum.  Speed  Dir.     Gust   Pres.         
2014   (PST)   W/m2    F      %     mph   deg.      mph    mb.     in.  
------------------------------------------------------------------------
 352   14:50   72.0    57   86.6     7     72.6    10.2    999.0   0.00  
 352   15:00   73.0    57   86.4     7     66.1    10.8    999.0   0.00  
 352   15:10   62.0    57   86.4     6     66.5     8.4    999.0   0.01  
 352   15:20   39.0    57   86.3     6     55.9     8.4    999.0   0.00  
 352   15:30   50.0    57   86.3     2     50.7     4.2    999.0   0.01  
 352   15:40   46.0    58   86.1     2     66.8     5.4    999.0   0.01  
 352   15:50   37.0    58   86.2     6    105.7     9.0    999.0   0.00  
 352   16:00   39.0    58   86.8     8    115.4     9.6    999.0   0.00  
 352   16:10   31.0    57   87.3     8     94.8    10.2    999.0   0.00  
 352   16:20   36.0    57   87.6     9     92.2    12.5    999.0   0.00  
 352   16:30   15.0    57   87.7     8     94.4    11.9    999.0   0.00  
 352   16:40   10.0    57   87.9     6    100.8     9.0    999.0   0.00  
 352   16:50    6.0    57   87.9     8     82.9    10.8    999.0   0.00  
 352   17:00    3.0    57   88.0     8     81.4    12.5    999.0   0.00  
 352   17:10    0.0    57   88.0     8     80.4    10.2    999.0   0.00  
 352   17:20    0.0    57   88.1     7     87.0     9.0    999.0   0.00  
 352   17:30    0.0    56   88.0     7     74.8     8.4    999.0   0.00  
 352   17:40    0.0    56   87.9     7     82.5     8.4    999.0   0.00  
 352   17:50    0.0    56   87.8     7     81.2     9.6    999.0   0.00  
 352   18:00    0.0    56   87.8     7     82.9     8.4    999.0   0.00  
 352   18:10    0.0    57   87.8     7     71.1     8.4    999.0   0.00  
 352   18:20    0.0    57   87.7     6     67.8     8.4    999.0   0.00  
 352   18:30    0.0    56   87.6     6     63.0     7.2    999.0   0.00  
 352   18:40    0.0    56   86.9     6     68.7     7.2    999.0   0.00  
 352   18:50    0.0    57   85.9     6     68.3     8.4    999.0   0.00  
 352   19:00    0.0    57   84.7     7     62.2     8.4    999.0   0.00  
 352   19:10    0.0    57   84.2     7     65.4     9.0    999.0   0.00  
 352   19:20    0.0    57   84.2     7     64.7     8.4    999.0   0.00  
 352   19:30    0.0    57   84.2     7     65.7     9.0    999.0   0.00  
 352   19:40    0.0    57   84.3     8     65.5     9.0    999.0   0.00  
 352   19:50    0.0    57   84.1     7     61.6     8.4    999.0   0.00  
 352   20:00    0.0    57   84.6     6     64.0     7.2    999.0   0.00  
 352   20:10    0.0    57   84.5     6     64.4     7.8    999.0   0.00  
 352   20:20    0.0    57   84.5     6     57.2     7.2    999.0   0.00  
 352   20:30    0.0    57   84.8     6     56.5     7.2    999.0   0.00  
 352   20:40    0.0    57   84.9     6     59.9     7.8    999.0   0.00  
 352   20:50    0.0    57   84.8     6     64.0     7.8    999.0   0.00  
 352   21:00    0.0    57   84.8     6     62.8     7.8    999.0   0.00  
 352   21:10    0.0    57   84.9     6     64.9     7.8    999.0   0.00  
 352   21:20    0.0    57   84.8     6     58.3     7.2    999.0   0.00  
 352   21:30    0.0    57   84.9     5     51.7     6.0    999.0   0.00  
 352   21:40    0.0    57   85.2     4     51.7     5.4    999.0   0.00  
 352   21:50    0.0    56   85.6     6     34.5     7.8    999.0   0.00  
 352   22:00    0.0    56   85.3     4     38.9     7.8    999.0   0.00  
 352   22:10    0.0    56   85.4     3     43.3     4.8    999.0   0.00  
 352   22:20    0.0    56   85.6     4     38.2     6.0    999.0   0.00  
 352   22:30    0.0    56   85.4     2     39.9     4.2    999.0   0.00  
 352   22:40    0.0    56   85.2     2     60.1     3.6    999.0   0.00  
 352   22:50    0.0    55   84.7     4     38.2     6.6    999.0   0.00  
 352   23:00    0.0    56   84.6     6     20.3     7.8    999.0   0.00  
 352   23:10    0.0    56   84.4     7     29.4     8.4    999.0   0.00  
 352   23:20    0.0    57   84.0     7     34.2     9.6    999.0   0.00  
 352   23:30    0.0    58   82.4     7     41.3     9.0    999.0   0.00  
 352   23:40    0.0    58   82.1     7     35.5     9.6    999.0   0.00  
 352   23:50    0.0    58   82.4     5     63.5     6.6    999.0   0.00  
 353    0:00    0.0    58   81.4     5     60.8     7.2    999.0   0.00  
 353    0:10    0.0    58   81.9     4     58.0     6.0    999.0   0.00  
 353    0:20    0.0    58   82.8     5     57.0     6.0    999.0   0.00  
 353    0:30    0.0    57   83.3     4     57.4     4.8    999.0   0.00  
 353    0:40    0.0    57   83.6     4     50.0     6.0    999.0   0.00  
 353    0:50    0.0    57   84.1     4     48.0     6.0    999.0   0.00  
 353    1:00    0.0    57   83.5     4     60.1     6.0    999.0   0.00  
 353    1:10    0.0    56   84.0     4     56.5     6.6    999.0   0.00  
 353    1:20    0.0    57   83.9     6     46.8     9.6    999.0   0.00  
 353    1:30    0.0    57   83.0     6     54.0     9.0    999.0   0.00  
 353    1:40    0.0    58   82.5     5     65.0     7.8    999.0   0.00  
 353    1:50    0.0    58   82.1     6     67.9     7.8    999.0   0.00  
 353    2:00    0.0    58   80.7     7     66.1     9.0    999.0   0.00  
 353    2:10    0.0    58   80.9     6     62.2     7.8    999.0   0.00  
 353    2:20    0.0    57   82.4     7     57.1     9.0    999.0   0.00  
 353    2:30    0.0    57   82.4     7     55.3    10.2    999.0   0.00  
 353    2:40    0.0    58   82.5    10     38.8    11.9    999.0   0.00  
 353    2:50    0.0    58   82.3    10     38.1    13.1    999.0   0.00  
 353    3:00    0.0    58   81.9    10     41.5    12.5    999.0   0.00  
 353    3:10    0.0    58   82.0     9     38.7    11.9    999.0   0.00  
 353    3:20    0.0    58   82.1     8     37.0    11.9    999.0   0.00  
 353    3:30    0.0    58   82.6     8     35.0    13.1    999.0   0.00  
 353    3:40    0.0    58   83.5     8     30.5    11.3    999.0   0.00  
 353    3:50    0.0    58   83.7     7     21.6    10.2    999.0   0.00  
 353    4:00    0.0    58   83.5     5     42.2     8.4    999.0   0.00  
 353    4:10    0.0    58   82.4     7     53.4     9.0    999.0   0.00  
 353    4:20    0.0    58   81.9     5     56.8     7.2    999.0   0.00  
 353    4:30    0.0    58   83.0     6     45.8     8.4    999.0   0.00  
 353    4:40    0.0    58   83.1     6     59.9     7.2    999.0   0.00  
 353    4:50    0.0    58   82.6     5     60.5     7.8    999.0   0.00  
 353    5:00    0.0    57   82.7     3     36.2     5.4    999.0   0.00  
 353    5:10    0.0    57   83.5     5     40.5     8.4    999.0   0.00  
 353    5:20    0.0    57   83.3     5     42.7     7.8    999.0   0.00  
 353    5:30    0.0    57   83.7     5     27.3     7.2    999.0   0.00  
 353    5:40    0.0    57   84.2     1     58.3     2.4    999.0   0.00  
 353    5:50    0.0    57   83.5     1     17.5     1.8    999.0   0.00  
 353    6:00    0.0    57   83.4     1     52.5     2.4    999.0   0.00  
 353    6:10    0.0    58   83.5     1     78.3     3.0    999.0   0.00  
 353    6:20    0.0    58   82.9     4     23.6     8.4    999.0   0.00  
 353    6:30    0.0    58   82.8     6     27.8     8.4    999.0   0.00  
 353    6:40    0.0    58   82.9     6     23.0     8.4    999.0   0.00  
 353    6:50    0.0    58   83.3     6     19.8     8.4    999.0   0.00  
 353    7:00    3.0    58   83.4     6     15.8     7.8    999.0   0.00  
 353    7:10    5.0    58   83.3     5     25.8     7.8    999.0   0.00  
 353    7:20   13.0    58   83.1     4     23.9     6.0    999.0   0.00  
 353    7:30   29.0    58   82.6     4     62.8     6.0    999.0   0.00  
 353    7:40   59.0    59   81.3     4     72.2     6.0    999.0   0.00  
 353    7:50   94.0    60   79.7     4     68.7     6.0    999.0   0.00  
 353    8:00  116.0    60   78.9     4     75.4     5.4    999.0   0.00  
 353    8:10  139.0    60   78.3     4     83.0     5.4    999.0   0.00  
 353    8:20  162.0    61   77.8     3     76.6     4.8    999.0   0.00  
 353    8:30  190.0    61   76.6     4     75.2     6.0    999.0   0.00  
 353    8:40  223.0    62   76.3     2     76.3     4.8    999.0   0.00  
 353    8:50  248.0    63   75.7     4    149.9     5.4    999.0   0.00  
 353    9:00  180.0    62   76.8     4    122.4     6.0    999.0   0.00  
 353    9:10  233.0    62   77.3     3    117.1     5.4    999.0   0.00  
 353    9:20  360.0    63   75.8     3    141.3     6.0    999.0   0.00  
 353    9:30  345.0    64   73.9     3    151.6     6.6    999.0   0.00  
 353    9:40  194.0    62   76.0     5    133.2     6.6    999.0   0.00  
 353    9:50  360.0    62   77.3     5    130.3     7.2    999.0   0.00  
 353   10:00  413.0    63   76.0     4    135.5     7.8    999.0   0.00  
 353   10:10  430.0    64   74.0     4    139.7     6.6    999.0   0.00  
 353   10:20  446.0    64   74.5     4    137.8     6.6    999.0   0.00  
 353   10:30  441.0    63   75.2     6    130.0    10.2    999.0   0.00  
 353   10:40  473.0    63   76.3     6    132.3     8.4    999.0   0.00  
 353   10:50  489.0    64   74.8     4    128.4     7.2    999.0   0.00  
 353   11:00  503.0    64   72.9     4    166.8     6.6    999.0   0.00  
 353   11:10  532.0    64   74.7     5    229.3     7.2    999.0   0.00  
 353   11:20  559.0    64   75.3     5    228.9     8.4    999.0   0.00  
 353   11:30  587.0    65   74.0     4    198.8     7.8    999.0   0.00  
 353   11:40  625.0    66   72.4     3    183.5     6.0    999.0   0.00  
 353   11:50  635.0    66   72.3     4    186.6     7.8    999.0   0.00  
 353   12:00  643.0    65   72.6     6    250.7     9.0    999.0   0.00  
 353   12:10  279.0    63   74.8     5    221.7     7.8    999.0   0.00  
 353   12:20  210.0    62   76.8     6    227.3    10.2    999.0   0.00  
 353   12:30  140.0    62   78.1     8    232.9    11.9    999.0   0.00  
 353   12:40  231.0    62   78.5     7    237.1    11.3    999.0   0.00  
 353   12:50  286.0    62   77.6     7    249.1    11.3    999.0   0.00  
 353   13:00  218.0    62   77.3     8    268.7    12.5    999.0   0.00  
 353   13:10  182.0    62   77.8    10    271.5    14.3    999.0   0.00  
 353   13:20  124.0    61   79.6    10    275.8    14.3    999.0   0.00  
 353   13:30   86.0    61   80.0     8    278.8    12.5    999.0   0.00  
 353   13:40  108.0    61   78.6     9    291.5    12.5    999.0   0.00  
 353   13:50  140.0    61   78.4     8    284.1    10.8    999.0   0.00  
 353   14:00  163.0    61   77.6     7    276.8     9.6    999.0   0.00  
 353   14:10  259.0    62   76.9     7    268.7    10.8    999.0   0.00  
 353   14:20  293.0    63   74.2     6    298.9    11.3    999.0   0.00  
 353   14:30  252.0    63   70.4     4    304.8    10.2    999.0   0.00  
 353   14:40  201.0    64   69.0     3    331.5     6.0    999.0   0.00  

Return to Wild Boar Gully graphs page.


Western Regional Climate Center,wrcc@dri.edu